AAY669 KPDX-KIWA
Flight info
| Callsign | AAY669 |
|---|---|
| Flight time | 2h 9m |
| Altitude | 39000 |
| Route | WHAMY5 KOATA Q35 NEERO WINEN CORKR DSERT DSERT2 |
| Aircraft | A320/M-SDE3FGHIRWY/LB1 |
Departure
| Time | 2026-05-08 06:47 |
|---|---|
| Airport | Portland International Airport (KPDX) |
Arrival
| Time | 2026-05-08 08:56 |
|---|---|
| Airport | Mesa Gateway Airport (KIWA) |
| Time | Latitude | Longitude | Altitude | Speed | Heading |
|---|---|---|---|---|---|
| 2026-05-08 06:35 | 45.59030 | -122.59426 | 30 ft | 0 kts | 54° |
| 2026-05-08 06:38 | 45.59028 | -122.59430 | 30 ft | 2 kts | 54° |
| 2026-05-08 06:38 | 45.59018 | -122.59450 | 29 ft | 6 kts | 54° |
| 2026-05-08 06:39 | 45.58991 | -122.59500 | 29 ft | 6 kts | 17° |
| 2026-05-08 06:39 | 45.58980 | -122.59521 | 29 ft | 6 kts | 297° |
| 2026-05-08 06:39 | 45.58993 | -122.59555 | 29 ft | 0 kts | 298° |
| 2026-05-08 06:41 | 45.59001 | -122.59576 | 29 ft | 10 kts | 299° |
| 2026-05-08 06:41 | 45.59039 | -122.59673 | 29 ft | 11 kts | 299° |
| 2026-05-08 06:42 | 45.59079 | -122.59774 | 29 ft | 12 kts | 299° |
| 2026-05-08 06:42 | 45.59129 | -122.59872 | 28 ft | 13 kts | 314° |
| 2026-05-08 06:42 | 45.59198 | -122.59969 | 28 ft | 15 kts | 315° |
| 2026-05-08 06:42 | 45.59200 | -122.60099 | 28 ft | 16 kts | 226° |
| 2026-05-08 06:43 | 45.59123 | -122.60211 | 28 ft | 16 kts | 225° |
| 2026-05-08 06:43 | 45.59048 | -122.60316 | 28 ft | 15 kts | 224° |
| 2026-05-08 06:43 | 45.58972 | -122.60388 | 28 ft | 12 kts | 174° |
| 2026-05-08 06:43 | 45.58906 | -122.60260 | 28 ft | 29 kts | 119° |
| 2026-05-08 06:44 | 45.58797 | -122.59980 | 28 ft | 33 kts | 119° |
| 2026-05-08 06:44 | 45.58684 | -122.59691 | 28 ft | 34 kts | 119° |
| 2026-05-08 06:44 | 45.58568 | -122.59393 | 28 ft | 35 kts | 118° |
| 2026-05-08 06:44 | 45.58449 | -122.59087 | 28 ft | 36 kts | 119° |
| 2026-05-08 06:45 | 45.58329 | -122.58778 | 28 ft | 36 kts | 119° |
| 2026-05-08 06:45 | 45.58206 | -122.58464 | 28 ft | 33 kts | 119° |
| 2026-05-08 06:45 | 45.58114 | -122.58365 | 27 ft | 16 kts | 197° |
| 2026-05-08 06:45 | 45.58082 | -122.58462 | 28 ft | 6 kts | 301° |
| 2026-05-08 06:46 | 45.58083 | -122.58464 | 28 ft | 0 kts | 301° |
| 2026-05-08 06:46 | 45.58125 | -122.58571 | 29 ft | 45 kts | 299° |
| 2026-05-08 06:46 | 45.58401 | -122.59282 | 28 ft | 116 kts | 299° |
| 2026-05-08 06:46 | 45.58884 | -122.60516 | 95 ft | 162 kts | 300° |
| 2026-05-08 06:47 | 45.59446 | -122.61892 | 821 ft | 160 kts | 302° |
| 2026-05-08 06:47 | 45.60023 | -122.63249 | 1645 ft | 160 kts | 302° |
| 2026-05-08 06:47 | 45.60619 | -122.64648 | 2194 ft | 174 kts | 301° |
| 2026-05-08 06:47 | 45.61289 | -122.66219 | 2569 ft | 196 kts | 301° |
| 2026-05-08 06:48 | 45.62038 | -122.67992 | 2922 ft | 221 kts | 300° |
| 2026-05-08 06:48 | 45.62862 | -122.69992 | 3424 ft | 246 kts | 299° |
| 2026-05-08 06:48 | 45.63753 | -122.72183 | 4104 ft | 262 kts | 298° |
| 2026-05-08 06:48 | 45.64657 | -122.74472 | 5102 ft | 265 kts | 293° |
| 2026-05-08 06:49 | 45.65087 | -122.77007 | 6116 ft | 264 kts | 270° |
| 2026-05-08 06:49 | 45.64738 | -122.79565 | 7119 ft | 266 kts | 246° |
| 2026-05-08 06:49 | 45.63630 | -122.81688 | 8060 ft | 272 kts | 221° |
| 2026-05-08 06:49 | 45.61932 | -122.82934 | 8959 ft | 282 kts | 196° |
| 2026-05-08 06:50 | 45.59944 | -122.82969 | 9857 ft | 295 kts | 169° |
| 2026-05-08 06:50 | 45.58088 | -122.81616 | 10668 ft | 308 kts | 140° |
| 2026-05-08 06:50 | 45.56801 | -122.79156 | 11284 ft | 326 kts | 122° |
| 2026-05-08 06:50 | 45.55642 | -122.76219 | 11630 ft | 349 kts | 120° |
| 2026-05-08 06:51 | 45.54484 | -122.73119 | 12279 ft | 358 kts | 119° |
| 2026-05-08 06:51 | 45.53318 | -122.69948 | 13045 ft | 363 kts | 119° |
| 2026-05-08 06:51 | 45.52133 | -122.66738 | 13835 ft | 368 kts | 119° |
| 2026-05-08 06:51 | 45.50920 | -122.63502 | 14524 ft | 372 kts | 120° |
| 2026-05-08 06:52 | 45.49682 | -122.60244 | 15210 ft | 376 kts | 120° |
| 2026-05-08 06:52 | 45.48419 | -122.56957 | 15883 ft | 380 kts | 120° |
| 2026-05-08 06:52 | 45.47137 | -122.53641 | 16554 ft | 385 kts | 120° |
| 2026-05-08 06:52 | 45.45834 | -122.50278 | 17233 ft | 389 kts | 121° |
| 2026-05-08 06:53 | 45.44522 | -122.46891 | 17883 ft | 394 kts | 121° |
| 2026-05-08 06:53 | 45.43191 | -122.43455 | 18531 ft | 398 kts | 121° |
| 2026-05-08 06:53 | 45.41848 | -122.39991 | 19094 ft | 402 kts | 121° |
| 2026-05-08 06:53 | 45.40494 | -122.36494 | 19665 ft | 406 kts | 121° |
| 2026-05-08 06:54 | 45.39122 | -122.32956 | 20229 ft | 410 kts | 121° |
| 2026-05-08 06:54 | 45.37736 | -122.29393 | 20785 ft | 414 kts | 121° |
| 2026-05-08 06:54 | 45.36342 | -122.25808 | 21351 ft | 417 kts | 121° |
| 2026-05-08 06:54 | 45.34925 | -122.22168 | 21878 ft | 421 kts | 121° |
| 2026-05-08 06:55 | 45.33498 | -122.18500 | 22416 ft | 425 kts | 121° |
| 2026-05-08 06:55 | 45.32063 | -122.14810 | 22946 ft | 429 kts | 122° |
| 2026-05-08 06:55 | 45.30611 | -122.11089 | 23469 ft | 433 kts | 122° |
| 2026-05-08 06:55 | 45.29141 | -122.07333 | 23933 ft | 436 kts | 122° |
| 2026-05-08 06:56 | 45.27659 | -122.03558 | 24390 ft | 439 kts | 122° |
| 2026-05-08 06:56 | 45.26162 | -121.99759 | 24849 ft | 442 kts | 122° |
| 2026-05-08 06:56 | 45.24454 | -121.96152 | 25265 ft | 441 kts | 131° |
| 2026-05-08 06:56 | 45.22520 | -121.92764 | 25695 ft | 443 kts | 132° |
| 2026-05-08 06:57 | 45.20568 | -121.89366 | 26116 ft | 445 kts | 132° |
| 2026-05-08 06:57 | 45.18606 | -121.85956 | 26522 ft | 448 kts | 131° |
| 2026-05-08 06:57 | 45.16627 | -121.82520 | 26934 ft | 451 kts | 131° |
| 2026-05-08 06:57 | 45.14637 | -121.79067 | 27340 ft | 453 kts | 131° |
| 2026-05-08 06:58 | 45.12636 | -121.75601 | 27748 ft | 456 kts | 131° |
| 2026-05-08 06:58 | 45.10622 | -121.72119 | 28139 ft | 458 kts | 131° |
| 2026-05-08 06:58 | 45.08592 | -121.68616 | 28551 ft | 461 kts | 131° |
| 2026-05-08 06:58 | 45.06554 | -121.65098 | 28942 ft | 463 kts | 131° |
| 2026-05-08 06:59 | 45.04322 | -121.61904 | 29301 ft | 463 kts | 141° |
| 2026-05-08 06:59 | 45.01837 | -121.58903 | 29695 ft | 466 kts | 142° |
| 2026-05-08 06:59 | 44.99355 | -121.55930 | 30035 ft | 468 kts | 142° |
| 2026-05-08 06:59 | 44.96891 | -121.52995 | 30346 ft | 471 kts | 142° |
| 2026-05-08 07:00 | 44.94379 | -121.50009 | 30648 ft | 473 kts | 142° |
| 2026-05-08 07:00 | 44.91860 | -121.47015 | 30943 ft | 475 kts | 142° |
| 2026-05-08 07:00 | 44.89294 | -121.43971 | 31242 ft | 477 kts | 142° |
| 2026-05-08 07:00 | 44.86781 | -121.40991 | 31526 ft | 479 kts | 142° |
| 2026-05-08 07:01 | 44.84231 | -121.37965 | 31838 ft | 480 kts | 141° |
| 2026-05-08 07:01 | 44.81684 | -121.34944 | 32252 ft | 479 kts | 141° |
| 2026-05-08 07:01 | 44.79140 | -121.31927 | 32664 ft | 477 kts | 141° |
| 2026-05-08 07:01 | 44.76604 | -121.28923 | 33080 ft | 476 kts | 142° |
| 2026-05-08 07:02 | 44.74065 | -121.25921 | 33493 ft | 475 kts | 142° |
| 2026-05-08 07:02 | 44.71539 | -121.22941 | 33906 ft | 474 kts | 142° |
| 2026-05-08 07:02 | 44.69015 | -121.19969 | 34284 ft | 473 kts | 142° |
| 2026-05-08 07:02 | 44.66491 | -121.17002 | 34636 ft | 472 kts | 142° |
| 2026-05-08 07:03 | 44.63972 | -121.14041 | 34958 ft | 472 kts | 142° |
| 2026-05-08 07:03 | 44.61454 | -121.11084 | 35281 ft | 471 kts | 142° |
| 2026-05-08 07:03 | 44.58941 | -121.08137 | 35593 ft | 471 kts | 142° |
| 2026-05-08 07:03 | 44.56426 | -121.05189 | 35902 ft | 471 kts | 142° |
| 2026-05-08 07:04 | 44.53916 | -121.02249 | 36227 ft | 470 kts | 142° |
| 2026-05-08 07:04 | 44.51405 | -120.99317 | 36481 ft | 470 kts | 142° |
| 2026-05-08 07:04 | 44.48887 | -120.96382 | 36767 ft | 470 kts | 142° |
| 2026-05-08 07:04 | 44.46374 | -120.93459 | 37014 ft | 470 kts | 142° |
| 2026-05-08 07:05 | 44.41354 | -120.87619 | 37077 ft | 467 kts | 142° |
| 2026-05-08 07:05 | 44.36366 | -120.81815 | 37079 ft | 467 kts | 142° |
| 2026-05-08 07:06 | 44.31367 | -120.76026 | 37073 ft | 467 kts | 142° |
| 2026-05-08 07:06 | 44.26360 | -120.70241 | 37068 ft | 467 kts | 142° |
| 2026-05-08 07:07 | 44.21359 | -120.64464 | 37059 ft | 467 kts | 142° |
| 2026-05-08 07:07 | 44.16348 | -120.58702 | 37057 ft | 467 kts | 142° |
| 2026-05-08 07:08 | 44.11333 | -120.52951 | 37067 ft | 467 kts | 142° |
| 2026-05-08 07:08 | 44.06317 | -120.47213 | 37067 ft | 467 kts | 142° |
| 2026-05-08 07:09 | 44.01297 | -120.41477 | 37073 ft | 467 kts | 142° |
| 2026-05-08 07:09 | 43.96316 | -120.35795 | 37073 ft | 467 kts | 142° |
| 2026-05-08 07:10 | 43.91295 | -120.30082 | 37076 ft | 466 kts | 142° |
| 2026-05-08 07:10 | 43.86276 | -120.24380 | 37082 ft | 466 kts | 142° |
| 2026-05-08 07:11 | 43.81246 | -120.18687 | 37076 ft | 467 kts | 142° |
| 2026-05-08 07:11 | 43.76218 | -120.13001 | 37089 ft | 467 kts | 142° |
| 2026-05-08 07:12 | 43.71191 | -120.07323 | 37081 ft | 466 kts | 142° |
| 2026-05-08 07:12 | 43.66161 | -120.01668 | 37092 ft | 466 kts | 142° |
| 2026-05-08 07:13 | 43.61121 | -119.96018 | 37081 ft | 467 kts | 142° |
| 2026-05-08 07:13 | 43.56078 | -119.90378 | 37075 ft | 466 kts | 142° |
| 2026-05-08 07:14 | 43.51036 | -119.84734 | 37081 ft | 467 kts | 142° |
| 2026-05-08 07:14 | 43.45989 | -119.79098 | 37089 ft | 467 kts | 142° |
| 2026-05-08 07:15 | 43.40966 | -119.73510 | 37085 ft | 467 kts | 142° |
| 2026-05-08 07:15 | 43.35898 | -119.67908 | 37088 ft | 467 kts | 142° |
| 2026-05-08 07:16 | 43.30838 | -119.62301 | 37087 ft | 467 kts | 142° |
| 2026-05-08 07:16 | 43.26596 | -119.57600 | 37080 ft | 467 kts | 142° |
| 2026-05-08 07:17 | 43.21561 | -119.52046 | 37086 ft | 467 kts | 142° |
| 2026-05-08 07:17 | 43.16494 | -119.46466 | 37082 ft | 467 kts | 142° |
| 2026-05-08 07:18 | 43.11419 | -119.40892 | 37078 ft | 467 kts | 143° |
| 2026-05-08 07:18 | 43.06342 | -119.35332 | 37072 ft | 467 kts | 143° |
| 2026-05-08 07:19 | 43.01269 | -119.29779 | 37076 ft | 468 kts | 143° |
| 2026-05-08 07:19 | 42.96182 | -119.24226 | 37076 ft | 468 kts | 143° |
| 2026-05-08 07:20 | 42.91089 | -119.18692 | 37077 ft | 468 kts | 143° |
| 2026-05-08 07:20 | 42.85991 | -119.13156 | 37077 ft | 468 kts | 143° |
| 2026-05-08 07:21 | 42.80895 | -119.07632 | 37073 ft | 468 kts | 143° |
| 2026-05-08 07:21 | 42.75837 | -119.02147 | 37065 ft | 468 kts | 143° |
| 2026-05-08 07:22 | 42.70742 | -118.96643 | 37056 ft | 468 kts | 143° |
| 2026-05-08 07:22 | 42.65630 | -118.91145 | 37056 ft | 469 kts | 143° |
| 2026-05-08 07:23 | 42.60512 | -118.85657 | 37048 ft | 469 kts | 143° |
| 2026-05-08 07:23 | 42.55396 | -118.80169 | 37042 ft | 469 kts | 143° |
| 2026-05-08 07:24 | 42.50271 | -118.74680 | 37045 ft | 469 kts | 143° |
| 2026-05-08 07:24 | 42.45150 | -118.69213 | 37037 ft | 469 kts | 143° |
| 2026-05-08 07:25 | 42.40021 | -118.63756 | 37031 ft | 469 kts | 143° |
| 2026-05-08 07:26 | 42.32320 | -118.55576 | 37025 ft | 469 kts | 143° |
| 2026-05-08 07:26 | 42.27215 | -118.50158 | 37029 ft | 469 kts | 143° |
| 2026-05-08 07:27 | 42.22068 | -118.44713 | 37029 ft | 469 kts | 143° |
| 2026-05-08 07:27 | 42.16928 | -118.39293 | 37028 ft | 469 kts | 143° |
| 2026-05-08 07:28 | 42.11792 | -118.33884 | 37032 ft | 468 kts | 143° |
| 2026-05-08 07:28 | 42.06690 | -118.28520 | 37026 ft | 468 kts | 143° |
| 2026-05-08 07:29 | 42.01561 | -118.23134 | 37022 ft | 468 kts | 143° |
| 2026-05-08 07:29 | 41.96428 | -118.17763 | 37014 ft | 467 kts | 143° |
| 2026-05-08 07:30 | 41.91288 | -118.12401 | 37014 ft | 467 kts | 143° |
| 2026-05-08 07:30 | 41.86158 | -118.07058 | 37011 ft | 467 kts | 143° |
| 2026-05-08 07:31 | 41.81081 | -118.01640 | 37011 ft | 467 kts | 137° |
| 2026-05-08 07:31 | 41.76354 | -117.95671 | 37004 ft | 467 kts | 137° |
| 2026-05-08 07:32 | 41.71620 | -117.89703 | 37004 ft | 467 kts | 137° |
| 2026-05-08 07:32 | 41.66880 | -117.83741 | 37001 ft | 467 kts | 137° |
| 2026-05-08 07:33 | 41.62132 | -117.77798 | 37002 ft | 467 kts | 137° |
| 2026-05-08 07:33 | 41.57384 | -117.71861 | 37003 ft | 468 kts | 137° |
| 2026-05-08 07:34 | 41.52630 | -117.65927 | 36999 ft | 468 kts | 137° |
| 2026-05-08 07:34 | 41.47875 | -117.59999 | 36999 ft | 468 kts | 137° |
| 2026-05-08 07:35 | 41.43137 | -117.54110 | 37002 ft | 468 kts | 137° |
| 2026-05-08 07:35 | 41.38363 | -117.48189 | 37003 ft | 469 kts | 137° |
| 2026-05-08 07:36 | 41.33578 | -117.42281 | 37012 ft | 469 kts | 137° |
| 2026-05-08 07:36 | 41.28797 | -117.36380 | 37013 ft | 469 kts | 137° |
| 2026-05-08 07:37 | 41.24019 | -117.30481 | 37018 ft | 469 kts | 137° |
| 2026-05-08 07:37 | 41.19231 | -117.24596 | 37013 ft | 469 kts | 137° |
| 2026-05-08 07:38 | 41.14442 | -117.18711 | 37010 ft | 468 kts | 137° |
| 2026-05-08 07:38 | 41.09649 | -117.12845 | 37007 ft | 468 kts | 138° |
| 2026-05-08 07:39 | 41.04858 | -117.06992 | 36999 ft | 468 kts | 138° |
| 2026-05-08 07:39 | 41.00072 | -117.01147 | 36993 ft | 468 kts | 138° |
| 2026-05-08 07:40 | 40.95276 | -116.95310 | 36986 ft | 468 kts | 138° |
| 2026-05-08 07:40 | 40.90477 | -116.89485 | 37012 ft | 468 kts | 138° |
| 2026-05-08 07:41 | 40.85672 | -116.83657 | 37031 ft | 469 kts | 138° |
| 2026-05-08 07:41 | 40.80899 | -116.77876 | 37052 ft | 469 kts | 138° |
| 2026-05-08 07:42 | 40.76085 | -116.72071 | 37066 ft | 469 kts | 138° |
| 2026-05-08 07:42 | 40.71265 | -116.66273 | 37066 ft | 469 kts | 138° |
| 2026-05-08 07:43 | 40.66448 | -116.60484 | 37058 ft | 469 kts | 138° |
| 2026-05-08 07:43 | 40.61628 | -116.54702 | 37034 ft | 468 kts | 138° |
| 2026-05-08 07:44 | 40.56814 | -116.48941 | 37006 ft | 468 kts | 138° |
| 2026-05-08 07:44 | 40.51999 | -116.43186 | 36974 ft | 468 kts | 138° |
| 2026-05-08 07:45 | 40.47182 | -116.37434 | 36964 ft | 468 kts | 138° |
| 2026-05-08 07:45 | 40.42395 | -116.31734 | 36967 ft | 468 kts | 138° |
| 2026-05-08 07:46 | 40.37569 | -116.26007 | 36963 ft | 468 kts | 138° |
| 2026-05-08 07:46 | 40.32742 | -116.20290 | 36961 ft | 468 kts | 138° |
| 2026-05-08 07:47 | 40.27913 | -116.14578 | 36957 ft | 467 kts | 138° |
| 2026-05-08 07:47 | 40.23085 | -116.08877 | 36956 ft | 467 kts | 138° |
| 2026-05-08 07:48 | 40.18254 | -116.03188 | 36957 ft | 467 kts | 138° |
| 2026-05-08 07:48 | 40.13423 | -115.97503 | 36955 ft | 467 kts | 138° |
| 2026-05-08 07:49 | 40.08586 | -115.91826 | 36956 ft | 467 kts | 138° |
| 2026-05-08 07:49 | 40.03745 | -115.86161 | 36955 ft | 467 kts | 138° |
| 2026-05-08 07:50 | 39.98904 | -115.80510 | 36948 ft | 467 kts | 138° |
| 2026-05-08 07:50 | 39.94059 | -115.74854 | 36952 ft | 468 kts | 138° |
| 2026-05-08 07:51 | 39.89203 | -115.69200 | 36952 ft | 468 kts | 138° |
| 2026-05-08 07:51 | 39.84345 | -115.63555 | 36954 ft | 468 kts | 138° |
| 2026-05-08 07:52 | 39.79482 | -115.57909 | 36954 ft | 469 kts | 138° |
| 2026-05-08 07:52 | 39.74611 | -115.52272 | 36949 ft | 468 kts | 138° |
| 2026-05-08 07:53 | 39.69742 | -115.46651 | 36947 ft | 468 kts | 138° |
| 2026-05-08 07:53 | 39.64867 | -115.41038 | 36944 ft | 468 kts | 138° |
| 2026-05-08 07:54 | 39.60028 | -115.35467 | 36942 ft | 468 kts | 138° |
| 2026-05-08 07:54 | 39.55152 | -115.29866 | 36943 ft | 468 kts | 138° |
| 2026-05-08 07:55 | 39.50272 | -115.24272 | 36950 ft | 468 kts | 138° |
| 2026-05-08 07:55 | 39.45394 | -115.18690 | 36991 ft | 468 kts | 138° |
| 2026-05-08 07:56 | 39.40511 | -115.13127 | 37045 ft | 468 kts | 138° |
| 2026-05-08 07:56 | 39.35627 | -115.07567 | 37099 ft | 468 kts | 138° |
| 2026-05-08 07:57 | 39.30743 | -115.02010 | 37148 ft | 468 kts | 138° |
| 2026-05-08 07:57 | 39.25854 | -114.96467 | 37183 ft | 468 kts | 138° |
| 2026-05-08 07:58 | 39.20963 | -114.90924 | 37186 ft | 468 kts | 138° |
| 2026-05-08 07:58 | 39.16070 | -114.85388 | 37154 ft | 468 kts | 138° |
| 2026-05-08 07:59 | 39.11180 | -114.79864 | 37103 ft | 467 kts | 138° |
| 2026-05-08 07:59 | 39.06285 | -114.74356 | 37042 ft | 467 kts | 138° |
| 2026-05-08 08:00 | 39.01387 | -114.68860 | 36981 ft | 467 kts | 138° |
| 2026-05-08 08:00 | 38.96489 | -114.63363 | 36928 ft | 467 kts | 138° |
| 2026-05-08 08:01 | 38.91619 | -114.57901 | 36929 ft | 467 kts | 138° |
| 2026-05-08 08:01 | 38.87531 | -114.53332 | 36931 ft | 467 kts | 138° |
| 2026-05-08 08:02 | 38.81815 | -114.46962 | 36927 ft | 467 kts | 138° |
| 2026-05-08 08:02 | 38.77698 | -114.42368 | 36929 ft | 468 kts | 138° |
| 2026-05-08 08:03 | 38.72816 | -114.36947 | 36928 ft | 468 kts | 139° |
| 2026-05-08 08:03 | 38.67883 | -114.31484 | 36925 ft | 468 kts | 138° |
| 2026-05-08 08:04 | 38.62962 | -114.26038 | 36926 ft | 468 kts | 138° |
| 2026-05-08 08:04 | 38.58066 | -114.20626 | 36924 ft | 468 kts | 138° |
| 2026-05-08 08:05 | 38.53137 | -114.15179 | 36930 ft | 468 kts | 138° |
| 2026-05-08 08:05 | 38.48200 | -114.09740 | 36937 ft | 468 kts | 138° |
| 2026-05-08 08:06 | 38.43265 | -114.04316 | 36936 ft | 468 kts | 138° |
| 2026-05-08 08:06 | 38.38321 | -113.98888 | 36937 ft | 469 kts | 138° |
| 2026-05-08 08:07 | 38.33400 | -113.93501 | 36936 ft | 469 kts | 138° |
| 2026-05-08 08:07 | 38.28454 | -113.88094 | 36941 ft | 469 kts | 138° |
| 2026-05-08 08:08 | 38.23494 | -113.82679 | 36938 ft | 469 kts | 138° |
| 2026-05-08 08:08 | 38.18527 | -113.77276 | 36936 ft | 469 kts | 138° |
| 2026-05-08 08:09 | 38.13570 | -113.71886 | 36936 ft | 469 kts | 138° |
| 2026-05-08 08:09 | 38.08626 | -113.66529 | 36936 ft | 469 kts | 138° |
| 2026-05-08 08:10 | 38.03663 | -113.61147 | 36936 ft | 469 kts | 138° |
| 2026-05-08 08:10 | 37.98694 | -113.55769 | 36931 ft | 469 kts | 138° |
| 2026-05-08 08:11 | 37.93645 | -113.50538 | 36928 ft | 469 kts | 145° |
| 2026-05-08 08:11 | 37.87880 | -113.46663 | 36943 ft | 469 kts | 154° |
| 2026-05-08 08:12 | 37.81994 | -113.43077 | 36986 ft | 469 kts | 154° |
| 2026-05-08 08:12 | 37.76112 | -113.39503 | 37024 ft | 469 kts | 154° |
| 2026-05-08 08:13 | 37.70220 | -113.35929 | 37054 ft | 469 kts | 154° |
| 2026-05-08 08:13 | 37.64374 | -113.32378 | 37068 ft | 469 kts | 154° |
| 2026-05-08 08:14 | 37.58488 | -113.28811 | 37040 ft | 469 kts | 154° |
| 2026-05-08 08:14 | 37.55551 | -113.27036 | 36452 ft | 469 kts | 154° |
| 2026-05-08 08:14 | 37.52601 | -113.25256 | 35707 ft | 470 kts | 154° |
| 2026-05-08 08:14 | 37.49643 | -113.23472 | 34965 ft | 471 kts | 153° |
| 2026-05-08 08:15 | 37.46675 | -113.21683 | 34239 ft | 473 kts | 153° |
| 2026-05-08 08:15 | 37.43702 | -113.19891 | 33455 ft | 474 kts | 153° |
| 2026-05-08 08:15 | 37.40734 | -113.18103 | 33075 ft | 474 kts | 153° |
| 2026-05-08 08:15 | 37.37755 | -113.16314 | 32927 ft | 474 kts | 153° |
| 2026-05-08 08:16 | 37.34767 | -113.14522 | 32949 ft | 476 kts | 153° |
| 2026-05-08 08:16 | 37.28795 | -113.10939 | 32962 ft | 476 kts | 153° |
| 2026-05-08 08:17 | 37.22809 | -113.07355 | 33009 ft | 477 kts | 153° |
| 2026-05-08 08:17 | 37.16855 | -113.03791 | 33060 ft | 477 kts | 153° |
| 2026-05-08 08:18 | 37.10854 | -113.00207 | 33102 ft | 478 kts | 153° |
| 2026-05-08 08:18 | 37.04837 | -112.96631 | 33141 ft | 478 kts | 153° |
| 2026-05-08 08:19 | 36.98818 | -112.93060 | 33144 ft | 478 kts | 153° |
| 2026-05-08 08:19 | 36.92802 | -112.89493 | 33140 ft | 479 kts | 153° |
| 2026-05-08 08:20 | 36.86782 | -112.85919 | 33103 ft | 479 kts | 153° |
| 2026-05-08 08:20 | 36.80792 | -112.82365 | 33065 ft | 478 kts | 153° |
| 2026-05-08 08:21 | 36.74779 | -112.78818 | 33030 ft | 478 kts | 153° |
| 2026-05-08 08:21 | 36.68759 | -112.75282 | 32997 ft | 477 kts | 153° |
| 2026-05-08 08:22 | 36.62750 | -112.71739 | 32995 ft | 477 kts | 153° |
| 2026-05-08 08:22 | 36.59755 | -112.69974 | 32551 ft | 475 kts | 153° |
| 2026-05-08 08:22 | 36.56764 | -112.68219 | 31709 ft | 476 kts | 153° |
| 2026-05-08 08:22 | 36.53805 | -112.66486 | 30884 ft | 477 kts | 153° |
| 2026-05-08 08:23 | 36.50803 | -112.64731 | 30054 ft | 478 kts | 153° |
| 2026-05-08 08:23 | 36.47792 | -112.62972 | 29298 ft | 477 kts | 153° |
| 2026-05-08 08:23 | 36.44783 | -112.61212 | 29025 ft | 479 kts | 153° |
| 2026-05-08 08:24 | 36.38753 | -112.57682 | 29017 ft | 479 kts | 153° |
| 2026-05-08 08:24 | 36.32716 | -112.54157 | 29014 ft | 480 kts | 153° |
| 2026-05-08 08:25 | 36.26676 | -112.50631 | 29023 ft | 480 kts | 153° |
| 2026-05-08 08:25 | 36.20627 | -112.47117 | 29015 ft | 480 kts | 154° |
| 2026-05-08 08:26 | 36.14563 | -112.43612 | 29067 ft | 481 kts | 154° |
| 2026-05-08 08:26 | 36.08533 | -112.40132 | 29109 ft | 481 kts | 154° |
| 2026-05-08 08:27 | 36.02334 | -112.37006 | 29154 ft | 482 kts | 159° |
| 2026-05-08 08:27 | 35.96003 | -112.34261 | 29176 ft | 482 kts | 160° |
| 2026-05-08 08:28 | 35.89663 | -112.31516 | 29181 ft | 482 kts | 159° |
| 2026-05-08 08:28 | 35.83364 | -112.28665 | 29166 ft | 482 kts | 158° |
| 2026-05-08 08:28 | 35.80222 | -112.27218 | 29020 ft | 482 kts | 158° |
| 2026-05-08 08:29 | 35.77086 | -112.25788 | 29022 ft | 482 kts | 160° |
| 2026-05-08 08:29 | 35.70571 | -112.23917 | 29019 ft | 483 kts | 167° |
| 2026-05-08 08:30 | 35.63996 | -112.22172 | 29025 ft | 483 kts | 167° |
| 2026-05-08 08:30 | 35.54132 | -112.19574 | 29119 ft | 483 kts | 167° |
| 2026-05-08 08:31 | 35.47550 | -112.17840 | 29172 ft | 483 kts | 167° |
| 2026-05-08 08:31 | 35.40990 | -112.16005 | 29215 ft | 483 kts | 165° |
| 2026-05-08 08:32 | 35.34458 | -112.13996 | 29231 ft | 483 kts | 165° |
| 2026-05-08 08:32 | 35.27957 | -112.11981 | 29228 ft | 482 kts | 165° |
| 2026-05-08 08:33 | 35.21484 | -112.10024 | 28928 ft | 478 kts | 165° |
| 2026-05-08 08:33 | 35.18282 | -112.09075 | 28433 ft | 468 kts | 166° |
| 2026-05-08 08:33 | 35.15147 | -112.08149 | 27937 ft | 459 kts | 165° |
| 2026-05-08 08:34 | 35.12070 | -112.07236 | 27456 ft | 451 kts | 165° |
| 2026-05-08 08:34 | 35.09045 | -112.06336 | 26977 ft | 443 kts | 165° |
| 2026-05-08 08:34 | 35.06074 | -112.05447 | 26503 ft | 436 kts | 165° |
| 2026-05-08 08:34 | 35.03148 | -112.04568 | 26023 ft | 429 kts | 165° |
| 2026-05-08 08:35 | 35.00275 | -112.03707 | 25601 ft | 422 kts | 165° |
| 2026-05-08 08:35 | 34.97444 | -112.02864 | 25187 ft | 416 kts | 165° |
| 2026-05-08 08:35 | 34.94648 | -112.02034 | 24778 ft | 410 kts | 165° |
| 2026-05-08 08:35 | 34.91894 | -112.01216 | 24376 ft | 405 kts | 165° |
| 2026-05-08 08:36 | 34.89176 | -112.00407 | 23975 ft | 400 kts | 165° |
| 2026-05-08 08:36 | 34.86485 | -111.99608 | 23562 ft | 395 kts | 165° |
| 2026-05-08 08:36 | 34.83824 | -111.98819 | 23084 ft | 392 kts | 165° |
| 2026-05-08 08:36 | 34.81187 | -111.98038 | 22611 ft | 388 kts | 165° |
| 2026-05-08 08:37 | 34.78572 | -111.97266 | 22141 ft | 385 kts | 165° |
| 2026-05-08 08:37 | 34.75977 | -111.96500 | 21682 ft | 382 kts | 165° |
| 2026-05-08 08:37 | 34.73402 | -111.95739 | 21227 ft | 379 kts | 165° |
| 2026-05-08 08:37 | 34.70845 | -111.94982 | 20778 ft | 377 kts | 165° |
| 2026-05-08 08:38 | 34.68313 | -111.94230 | 20371 ft | 373 kts | 165° |
| 2026-05-08 08:38 | 34.65801 | -111.93486 | 19978 ft | 370 kts | 166° |
| 2026-05-08 08:38 | 34.63315 | -111.92751 | 19595 ft | 367 kts | 166° |
| 2026-05-08 08:38 | 34.60873 | -111.92028 | 19209 ft | 364 kts | 166° |
| 2026-05-08 08:39 | 34.58420 | -111.91304 | 18828 ft | 361 kts | 166° |
| 2026-05-08 08:39 | 34.55985 | -111.90588 | 18456 ft | 359 kts | 166° |
| 2026-05-08 08:39 | 34.53568 | -111.89877 | 18045 ft | 356 kts | 166° |
| 2026-05-08 08:39 | 34.51164 | -111.89169 | 17614 ft | 354 kts | 166° |
| 2026-05-08 08:40 | 34.48774 | -111.88465 | 17196 ft | 352 kts | 166° |
| 2026-05-08 08:40 | 34.46402 | -111.87767 | 16786 ft | 350 kts | 166° |
| 2026-05-08 08:40 | 34.44049 | -111.87076 | 16469 ft | 347 kts | 166° |
| 2026-05-08 08:40 | 34.41709 | -111.86389 | 16173 ft | 345 kts | 166° |
| 2026-05-08 08:41 | 34.39376 | -111.85703 | 15871 ft | 344 kts | 166° |
| 2026-05-08 08:41 | 34.37060 | -111.85021 | 15573 ft | 342 kts | 166° |
| 2026-05-08 08:41 | 34.34750 | -111.84340 | 15281 ft | 341 kts | 166° |
| 2026-05-08 08:41 | 34.32450 | -111.83664 | 14994 ft | 339 kts | 166° |
| 2026-05-08 08:42 | 34.30164 | -111.82994 | 14706 ft | 338 kts | 166° |
| 2026-05-08 08:42 | 34.27886 | -111.82329 | 14421 ft | 336 kts | 166° |
| 2026-05-08 08:42 | 34.25614 | -111.81667 | 14134 ft | 335 kts | 166° |
| 2026-05-08 08:42 | 34.23357 | -111.81008 | 13858 ft | 333 kts | 166° |
| 2026-05-08 08:43 | 34.21107 | -111.80349 | 13555 ft | 332 kts | 166° |
| 2026-05-08 08:43 | 34.18867 | -111.79696 | 13239 ft | 330 kts | 166° |
| 2026-05-08 08:43 | 34.16637 | -111.79045 | 12934 ft | 329 kts | 166° |
| 2026-05-08 08:43 | 34.14420 | -111.78396 | 12625 ft | 327 kts | 166° |
| 2026-05-08 08:44 | 34.12201 | -111.77837 | 12320 ft | 326 kts | 172° |
| 2026-05-08 08:44 | 34.09949 | -111.77640 | 12020 ft | 324 kts | 180° |
| 2026-05-08 08:44 | 34.07699 | -111.77761 | 11705 ft | 323 kts | 181° |
| 2026-05-08 08:44 | 34.05463 | -111.77779 | 11363 ft | 321 kts | 180° |
| 2026-05-08 08:45 | 34.03239 | -111.77761 | 11026 ft | 319 kts | 179° |
| 2026-05-08 08:45 | 34.01022 | -111.77737 | 10720 ft | 317 kts | 179° |
| 2026-05-08 08:45 | 33.98821 | -111.77709 | 10408 ft | 315 kts | 179° |
| 2026-05-08 08:45 | 33.96634 | -111.77655 | 10118 ft | 314 kts | 178° |
| 2026-05-08 08:46 | 33.94461 | -111.77560 | 9962 ft | 309 kts | 178° |
| 2026-05-08 08:46 | 33.92336 | -111.77447 | 9842 ft | 303 kts | 178° |
| 2026-05-08 08:46 | 33.90267 | -111.77333 | 9720 ft | 301 kts | 178° |
| 2026-05-08 08:46 | 33.88178 | -111.77219 | 9594 ft | 300 kts | 178° |
| 2026-05-08 08:47 | 33.86093 | -111.77109 | 9464 ft | 300 kts | 178° |
| 2026-05-08 08:47 | 33.84010 | -111.77004 | 9331 ft | 299 kts | 178° |
| 2026-05-08 08:47 | 33.81931 | -111.76900 | 9214 ft | 299 kts | 178° |
| 2026-05-08 08:47 | 33.79858 | -111.76795 | 9090 ft | 298 kts | 178° |
| 2026-05-08 08:48 | 33.77787 | -111.76689 | 8965 ft | 298 kts | 178° |
| 2026-05-08 08:48 | 33.75722 | -111.76585 | 8840 ft | 297 kts | 178° |
| 2026-05-08 08:48 | 33.73657 | -111.76483 | 8726 ft | 296 kts | 179° |
| 2026-05-08 08:48 | 33.71597 | -111.76384 | 8600 ft | 296 kts | 179° |
| 2026-05-08 08:49 | 33.69544 | -111.76286 | 8479 ft | 295 kts | 179° |
| 2026-05-08 08:49 | 33.67497 | -111.76186 | 8357 ft | 291 kts | 179° |
| 2026-05-08 08:49 | 33.65519 | -111.76087 | 8233 ft | 278 kts | 179° |
| 2026-05-08 08:49 | 33.64231 | -111.76023 | 8150 ft | 270 kts | 179° |
| 2026-05-08 08:50 | 33.62414 | -111.75933 | 8029 ft | 259 kts | 179° |
| 2026-05-08 08:50 | 33.60632 | -111.75843 | 7737 ft | 256 kts | 179° |
| 2026-05-08 08:50 | 33.58851 | -111.75755 | 7362 ft | 257 kts | 179° |
| 2026-05-08 08:50 | 33.57057 | -111.75670 | 7005 ft | 258 kts | 180° |
| 2026-05-08 08:51 | 33.55259 | -111.75584 | 6652 ft | 260 kts | 180° |
| 2026-05-08 08:51 | 33.53447 | -111.75496 | 6291 ft | 261 kts | 180° |
| 2026-05-08 08:51 | 33.51633 | -111.75404 | 5911 ft | 259 kts | 180° |
| 2026-05-08 08:51 | 33.49864 | -111.75313 | 5555 ft | 250 kts | 180° |
| 2026-05-08 08:52 | 33.48157 | -111.75228 | 5215 ft | 241 kts | 181° |
| 2026-05-08 08:52 | 33.46502 | -111.75146 | 4889 ft | 234 kts | 181° |
| 2026-05-08 08:52 | 33.44894 | -111.75068 | 4563 ft | 228 kts | 181° |
| 2026-05-08 08:52 | 33.43332 | -111.74991 | 4253 ft | 222 kts | 181° |
| 2026-05-08 08:53 | 33.41822 | -111.74917 | 3970 ft | 211 kts | 181° |
| 2026-05-08 08:53 | 33.40397 | -111.74847 | 3676 ft | 199 kts | 181° |
| 2026-05-08 08:53 | 33.39050 | -111.74684 | 3417 ft | 192 kts | 166° |
| 2026-05-08 08:53 | 33.37951 | -111.73816 | 3138 ft | 191 kts | 133° |
| 2026-05-08 08:54 | 33.37072 | -111.72667 | 2886 ft | 181 kts | 136° |
| 2026-05-08 08:54 | 33.36218 | -111.71670 | 2647 ft | 163 kts | 138° |
| 2026-05-08 08:54 | 33.35429 | -111.70773 | 2441 ft | 150 kts | 137° |
| 2026-05-08 08:54 | 33.34692 | -111.69937 | 2220 ft | 141 kts | 136° |
| 2026-05-08 08:55 | 33.33999 | -111.69143 | 2020 ft | 136 kts | 135° |
| 2026-05-08 08:55 | 33.33327 | -111.68370 | 1817 ft | 132 kts | 134° |
| 2026-05-08 08:55 | 33.32664 | -111.67627 | 1631 ft | 130 kts | 134° |
| 2026-05-08 08:55 | 33.32014 | -111.66883 | 1455 ft | 129 kts | 134° |
| 2026-05-08 08:56 | 33.31379 | -111.66149 | 1375 ft | 119 kts | 134° |
| 2026-05-08 08:56 | 33.30867 | -111.65550 | 1373 ft | 87 kts | 136° |
| 2026-05-08 08:56 | 33.30551 | -111.65182 | 1379 ft | 48 kts | 136° |
| 2026-05-08 08:56 | 33.30327 | -111.64923 | 1382 ft | 41 kts | 136° |
| 2026-05-08 08:57 | 33.30134 | -111.64697 | 1384 ft | 36 kts | 136° |
| 2026-05-08 08:57 | 33.29961 | -111.64497 | 1396 ft | 33 kts | 136° |
| 2026-05-08 08:57 | 33.29821 | -111.64335 | 1400 ft | 18 kts | 136° |
| 2026-05-08 08:57 | 33.29721 | -111.64335 | 1405 ft | 18 kts | 224° |
| 2026-05-08 08:58 | 33.29628 | -111.64445 | 1396 ft | 20 kts | 225° |
| 2026-05-08 08:58 | 33.29529 | -111.64568 | 1388 ft | 22 kts | 226° |
| 2026-05-08 08:58 | 33.29410 | -111.64712 | 1382 ft | 26 kts | 226° |
| 2026-05-08 08:58 | 33.29352 | -111.64824 | 1385 ft | 8 kts | 298° |
| 2026-05-08 08:59 | 33.29433 | -111.64924 | 1385 ft | 29 kts | 316° |
| 2026-05-08 08:59 | 33.29590 | -111.65107 | 1381 ft | 34 kts | 315° |
| 2026-05-08 08:59 | 33.29767 | -111.65314 | 1375 ft | 37 kts | 315° |
| 2026-05-08 08:59 | 33.29956 | -111.65534 | 1375 ft | 39 kts | 315° |
| 2026-05-08 09:00 | 33.30152 | -111.65763 | 1375 ft | 40 kts | 315° |
| 2026-05-08 09:00 | 33.30358 | -111.66004 | 1369 ft | 43 kts | 315° |
| 2026-05-08 09:00 | 33.30564 | -111.66242 | 1364 ft | 40 kts | 315° |
| 2026-05-08 09:00 | 33.30697 | -111.66407 | 1364 ft | 15 kts | 295° |
| 2026-05-08 09:01 | 33.30703 | -111.66527 | 1364 ft | 14 kts | 270° |
| 2026-05-08 09:01 | 33.30704 | -111.66644 | 1362 ft | 14 kts | 270° |
| 2026-05-08 09:01 | 33.30717 | -111.66732 | 1361 ft | 9 kts | 313° |
| 2026-05-08 09:01 | 33.30773 | -111.66747 | 1361 ft | 8 kts | 359° |
| 2026-05-08 09:02 | 33.30803 | -111.66785 | 1362 ft | 6 kts | 276° |
| 2026-05-08 09:02 | 33.30802 | -111.66798 | 1362 ft | 0 kts | 270° |